Time;durP1;ratioP1;P1;durP2;ratioP2;P2;SDS_P1;SDS_P2;PMS_P1;PMS_P2;Temp;Humidity;BMP_temperature;BMP_pressure;BME280_temperature;BME280_humidity;BME280_pressure;Samples;Min_cycle;Max_cycle;Signal;HPM_P1;HPM_P2
2022/04/22 00:01:15;;;;;;;;;;;11.00;99.90;;;;;;5090651;28;19950;-73
2022/04/22 00:03:41;;;;;;;;;;;11.00;99.90;;;;;;5091680;28;19931;-73
2022/04/22 00:06:07;;;;;;;;;;;10.90;99.90;;;;;;5090213;28;19924;-73
2022/04/22 00:08:32;;;;;;;;;;;10.90;99.90;;;;;;5090216;28;20397;-73
2022/04/22 00:13:43;;;;;;;;;;;10.80;99.90;;;;;;5090490;28;20256;-73
2022/04/22 00:16:08;;;;;;;;;;;10.90;99.90;;;;;;5091602;28;19931;-73
2022/04/22 00:18:34;;;;;;;;;;;10.80;99.90;;;;;;5090826;28;19928;-73
2022/04/22 00:21:00;;;;;;;;;;;10.80;99.90;;;;;;5090085;28;19924;-73
2022/04/22 00:23:27;;;;;;;;;;;10.80;99.90;;;;;;5089760;28;20290;-73
2022/04/22 00:25:53;;;;;;;;;;;10.80;99.90;;;;;;5089840;28;19928;-73
2022/04/22 00:28:19;;;;;;;;;;;10.80;99.90;;;;;;5091144;28;19946;-73
2022/04/22 00:30:44;;;;;;;;;;;10.80;99.90;;;;;;5090842;28;20260;-73
2022/04/22 00:33:10;;;;;;;;;;;10.80;99.90;;;;;;5091168;28;20283;-73
2022/04/22 00:35:36;;;;;;;;;;;10.80;99.90;;;;;;5090818;28;19924;-73
2022/04/22 00:38:01;;;;;;;;;;;10.80;99.90;;;;;;5090869;28;20306;-73
2022/04/22 00:40:27;;;;;;;;;;;10.70;99.90;;;;;;5090916;28;19938;-73
2022/04/22 00:42:53;;;;;;;;;;;10.70;99.90;;;;;;5090784;28;19928;-73
2022/04/22 00:45:20;;;;;;;;;;;10.70;99.90;;;;;;5090184;28;19931;-73
2022/04/22 00:47:46;;;;;;;;;;;10.70;99.90;;;;;;5103434;28;19931;-73
2022/04/22 00:50:12;;;;;;;;;;;10.70;99.90;;;;;;5110196;28;19981;-73
2022/04/22 00:52:37;;;;;;;;;;;10.60;99.90;;;;;;5093430;28;19924;-73
2022/04/22 00:55:03;;;;;;;;;;;10.60;99.90;;;;;;5106328;28;20023;-73
2022/04/22 00:57:29;;;;;;;;;;;10.60;99.90;;;;;;5071846;28;19936;-73
2022/04/22 00:59:54;;;;;;;;;;;10.60;99.90;;;;;;5098051;28;19934;-73
2022/04/22 01:02:20;;;;;;;;;;;10.50;99.90;;;;;;5108477;28;19969;-73
2022/04/22 01:10:13;;;;;;;;;;;10.40;99.90;;;;;;5088445;28;19931;-73
2022/04/22 01:12:39;;;;;;;;;;;10.30;99.90;;;;;;5089587;28;20378;-72
2022/04/22 01:15:05;;;;;;;;;;;10.30;99.90;;;;;;5089596;28;19924;-72
2022/04/22 01:17:31;;;;;;;;;;;10.30;99.90;;;;;;5087875;28;19928;-72
2022/04/22 01:19:57;;;;;;;;;;;10.20;99.90;;;;;;5089453;28;19934;-73
2022/04/22 01:22:22;;;;;;;;;;;10.20;99.90;;;;;;5093744;28;19924;-73
2022/04/22 01:24:53;;;;;;;;;;;10.10;99.90;;;;;;5105118;28;19935;-73
2022/04/22 01:27:19;;;;;;;;;;;10.00;99.90;;;;;;5091940;28;19924;-73
2022/04/22 01:29:44;;;;;;;;;;;10.00;99.90;;;;;;5092536;28;19924;-73
2022/04/22 01:32:10;;;;;;;;;;;9.90;99.90;;;;;;5109176;28;20393;-73
2022/04/22 01:34:37;;;;;;;;;;;9.90;99.90;;;;;;5110487;28;20431;-73
2022/04/22 01:37:03;;;;;;;;;;;9.80;99.90;;;;;;5092468;28;20035;-73
2022/04/22 01:39:30;;;;;;;;;;;9.80;99.90;;;;;;5096807;28;20457;-73
2022/04/22 01:41:55;;;;;;;;;;;9.70;99.90;;;;;;5088710;28;19964;-73
2022/04/22 01:44:22;;;;;;;;;;;9.70;99.90;;;;;;5088958;28;20413;-73
2022/04/22 01:46:47;;;;;;;;;;;9.70;99.90;;;;;;5089491;28;20001;-73
2022/04/22 01:49:13;;;;;;;;;;;9.70;99.90;;;;;;5089150;28;20343;-73
2022/04/22 01:51:38;;;;;;;;;;;9.60;99.90;;;;;;5088482;28;19924;-73
2022/04/22 01:54:04;;;;;;;;;;;9.60;99.90;;;;;;5089931;28;19962;-73
2022/04/22 01:56:29;;;;;;;;;;;9.60;99.90;;;;;;5102236;28;19928;-72
2022/04/22 01:58:55;;;;;;;;;;;9.50;99.90;;;;;;5110151;28;19923;-73
2022/04/22 02:01:20;;;;;;;;;;;9.50;99.90;;;;;;5110163;28;19974;-73
2022/04/22 02:03:46;;;;;;;;;;;9.50;99.90;;;;;;5108371;28;19934;-73
2022/04/22 02:06:11;;;;;;;;;;;9.50;99.90;;;;;;5113906;28;19924;-73
2022/04/22 02:08:37;;;;;;;;;;;9.50;99.90;;;;;;5095736;28;19924;-73
2022/04/22 02:11:03;;;;;;;;;;;9.50;99.90;;;;;;5114152;28;19923;-73
2022/04/22 02:13:28;;;;;;;;;;;9.40;99.90;;;;;;5112752;28;20394;-73
2022/04/22 02:15:54;;;;;;;;;;;9.40;99.90;;;;;;5114066;28;19932;-72
2022/04/22 02:18:19;;;;;;;;;;;9.40;99.90;;;;;;5114167;28;20503;-73
2022/04/22 02:20:45;;;;;;;;;;;9.30;99.90;;;;;;5112341;28;20147;-73
2022/04/22 02:23:10;;;;;;;;;;;9.30;99.90;;;;;;5112234;28;19924;-73
2022/04/22 02:25:36;;;;;;;;;;;9.30;99.90;;;;;;5113851;28;19928;-72
2022/04/22 02:30:46;;;;;;;;;;;9.20;99.90;;;;;;5099829;28;20790;-73
2022/04/22 02:33:13;;;;;;;;;;;9.20;99.90;;;;;;5093286;28;19932;-73
2022/04/22 02:35:39;;;;;;;;;;;9.10;99.90;;;;;;5093373;28;19924;-73
2022/04/22 02:38:04;;;;;;;;;;;9.10;99.90;;;;;;5093403;28;19924;-73
2022/04/22 02:45:58;;;;;;;;;;;9.00;99.90;;;;;;5093144;28;19924;-73
2022/04/22 02:48:24;;;;;;;;;;;9.00;99.90;;;;;;5093008;28;19931;-73
2022/04/22 02:50:49;;;;;;;;;;;9.00;99.90;;;;;;5092576;28;20037;-73
2022/04/22 02:53:15;;;;;;;;;;;9.00;99.90;;;;;;5092673;28;20450;-73
2022/04/22 02:55:44;;;;;;;;;;;9.00;99.90;;;;;;5091553;28;20441;-73
2022/04/22 02:58:10;;;;;;;;;;;8.90;99.90;;;;;;5074611;28;19931;-73
2022/04/22 03:00:35;;;;;;;;;;;8.90;99.90;;;;;;5092677;28;19924;-73
2022/04/22 03:03:01;;;;;;;;;;;8.90;99.90;;;;;;5074418;28;19924;-73
2022/04/22 03:05:27;;;;;;;;;;;8.80;99.90;;;;;;5092648;28;19928;-73
2022/04/22 03:07:52;;;;;;;;;;;8.90;99.90;;;;;;5092594;28;19931;-73
2022/04/22 03:10:18;;;;;;;;;;;8.80;99.90;;;;;;5091946;28;19932;-73
2022/04/22 03:12:44;;;;;;;;;;;8.80;99.90;;;;;;5091482;28;19924;-73
2022/04/22 03:15:09;;;;;;;;;;;8.80;99.90;;;;;;5091184;28;19928;-73
2022/04/22 03:17:35;;;;;;;;;;;8.80;99.90;;;;;;5092007;28;20348;-73
2022/04/22 03:20:00;;;;;;;;;;;8.70;99.90;;;;;;5091521;28;20018;-73
2022/04/22 03:22:26;;;;;;;;;;;8.70;99.90;;;;;;5092118;28;20457;-73
2022/04/22 03:24:52;;;;;;;;;;;8.70;99.90;;;;;;5090894;28;19928;-73
2022/04/22 03:27:17;;;;;;;;;;;8.70;99.90;;;;;;5091180;28;19928;-73
2022/04/22 03:29:43;;;;;;;;;;;8.60;99.90;;;;;;5091466;28;19924;-73
2022/04/22 03:32:10;;;;;;;;;;;8.60;99.90;;;;;;5091786;28;19932;-73
2022/04/22 03:34:36;;;;;;;;;;;8.60;99.90;;;;;;5092174;28;19930;-73
2022/04/22 03:37:01;;;;;;;;;;;8.50;99.90;;;;;;5092632;28;19924;-73
2022/04/22 03:39:27;;;;;;;;;;;8.50;99.90;;;;;;5091904;28;19973;-73
2022/04/22 03:41:52;;;;;;;;;;;8.50;99.90;;;;;;5091629;28;19931;-73
2022/04/22 03:44:18;;;;;;;;;;;8.40;99.90;;;;;;5092194;28;19931;-73
2022/04/22 03:46:43;;;;;;;;;;;8.40;99.90;;;;;;5092113;28;20340;-72
2022/04/22 03:49:09;;;;;;;;;;;8.40;99.90;;;;;;5090627;28;19931;-73
2022/04/22 03:51:35;;;;;;;;;;;8.30;99.90;;;;;;5091808;28;19928;-73
2022/04/22 03:54:01;;;;;;;;;;;8.40;99.90;;;;;;5091733;28;19976;-73
2022/04/22 03:59:11;;;;;;;;;;;8.30;99.90;;;;;;5090580;28;20274;-73
2022/04/22 04:01:36;;;;;;;;;;;8.30;99.90;;;;;;5091126;28;19931;-73
2022/04/22 04:04:01;;;;;;;;;;;8.30;99.90;;;;;;5091536;28;19924;-73
2022/04/22 04:06:27;;;;;;;;;;;8.20;99.90;;;;;;5091499;28;20576;-73
2022/04/22 04:17:14;;;;;;;;;;;8.20;99.90;;;;;;5091224;28;19928;-73
2022/04/22 04:25:08;;;;;;;;;;;8.10;99.90;;;;;;5090857;28;19924;-73
2022/04/22 04:27:36;;;;;;;;;;;8.10;99.90;;;;;;5090572;28;20302;-73
2022/04/22 04:30:02;;;;;;;;;;;8.10;99.90;;;;;;5099013;28;19930;-73
2022/04/22 04:32:28;;;;;;;;;;;8.10;99.90;;;;;;5111274;27;19928;-73
2022/04/22 04:34:53;;;;;;;;;;;8.10;99.90;;;;;;5111404;28;19930;-74
2022/04/22 04:37:19;;;;;;;;;;;8.10;99.90;;;;;;5111055;28;19992;-73
2022/04/22 04:39:44;;;;;;;;;;;8.10;99.90;;;;;;5110004;28;20735;-73
2022/04/22 04:42:10;;;;;;;;;;;8.10;99.90;;;;;;5111233;28;19928;-73
2022/04/22 04:44:36;;;;;;;;;;;8.10;99.90;;;;;;5110978;28;20274;-73
2022/04/22 04:47:02;;;;;;;;;;;8.10;99.90;;;;;;5109979;28;19923;-73
2022/04/22 04:49:27;;;;;;;;;;;8.10;99.90;;;;;;5111129;28;20347;-73
2022/04/22 04:51:53;;;;;;;;;;;8.10;99.90;;;;;;5110935;28;19924;-73
2022/04/22 04:54:19;;;;;;;;;;;8.10;99.90;;;;;;5111327;28;19931;-73
2022/04/22 04:56:44;;;;;;;;;;;8.10;99.90;;;;;;5110980;28;19924;-73
2022/04/22 04:59:10;;;;;;;;;;;8.10;99.90;;;;;;5110578;28;19935;-73
2022/04/22 05:01:35;;;;;;;;;;;8.10;99.90;;;;;;5109925;28;19924;-73
2022/04/22 05:04:01;;;;;;;;;;;8.20;99.90;;;;;;5111028;28;19924;-73
2022/04/22 05:06:26;;;;;;;;;;;8.20;99.90;;;;;;5110625;28;19934;-73
2022/04/22 05:08:52;;;;;;;;;;;8.20;99.90;;;;;;5110718;28;19967;-73
2022/04/22 05:11:17;;;;;;;;;;;8.20;99.90;;;;;;5110552;28;19930;-73
2022/04/22 05:13:43;;;;;;;;;;;8.20;99.90;;;;;;5110579;28;20405;-73
2022/04/22 05:16:08;;;;;;;;;;;8.20;99.90;;;;;;5110607;28;19936;-73
2022/04/22 05:18:34;;;;;;;;;;;8.20;99.90;;;;;;5092179;28;20359;-73
2022/04/22 05:20:59;;;;;;;;;;;8.20;99.90;;;;;;5110386;28;19923;-73
2022/04/22 05:23:25;;;;;;;;;;;8.30;99.90;;;;;;5110094;27;19924;-73
2022/04/22 05:25:50;;;;;;;;;;;8.30;99.90;;;;;;5110414;28;19931;-74
2022/04/22 05:28:16;;;;;;;;;;;8.30;99.90;;;;;;5109319;28;20348;-73
2022/04/22 05:33:25;;;;;;;;;;;8.40;99.90;;;;;;5089652;28;19971;-73
2022/04/22 05:35:51;;;;;;;;;;;8.50;99.90;;;;;;5088648;28;20040;-73
2022/04/22 05:38:17;;;;;;;;;;;8.50;99.90;;;;;;5089773;28;19924;-73
2022/04/22 05:40:46;;;;;;;;;;;8.50;99.90;;;;;;5087875;28;20022;-73
2022/04/22 05:43:11;;;;;;;;;;;8.60;99.90;;;;;;5089782;28;19931;-73
2022/04/22 05:45:37;;;;;;;;;;;8.60;99.90;;;;;;5088149;28;19924;-73
2022/04/22 05:48:03;;;;;;;;;;;8.70;99.90;;;;;;5071708;28;20470;-73
2022/04/22 05:50:28;;;;;;;;;;;8.70;99.90;;;;;;5088718;28;19978;-73
2022/04/22 05:52:55;;;;;;;;;;;8.70;99.90;;;;;;5089610;28;19924;-73
2022/04/22 05:55:21;;;;;;;;;;;8.70;99.90;;;;;;5092056;28;19978;-73
2022/04/22 05:57:48;;;;;;;;;;;8.80;99.90;;;;;;5101160;28;19975;-73
2022/04/22 06:00:14;;;;;;;;;;;8.80;99.90;;;;;;5092047;28;20257;-73
2022/04/22 06:02:41;;;;;;;;;;;8.80;99.90;;;;;;5109717;28;20014;-73
2022/04/22 06:05:07;;;;;;;;;;;8.90;99.90;;;;;;5108566;28;19924;-74
2022/04/22 06:07:32;;;;;;;;;;;8.90;99.90;;;;;;5109944;28;19931;-73
2022/04/22 06:12:42;;;;;;;;;;;9.10;99.90;;;;;;5108229;28;19973;-73
2022/04/22 06:15:08;;;;;;;;;;;9.10;99.90;;;;;;5109652;28;20390;-73
2022/04/22 06:17:33;;;;;;;;;;;9.10;99.90;;;;;;5109777;28;19927;-73
2022/04/22 06:19:59;;;;;;;;;;;9.10;99.90;;;;;;5109655;28;20011;-73
2022/04/22 06:22:26;;;;;;;;;;;9.20;99.90;;;;;;5108000;28;19924;-73
2022/04/22 06:24:52;;;;;;;;;;;9.20;99.90;;;;;;5108417;28;19980;-73
2022/04/22 06:27:21;;;;;;;;;;;9.30;99.90;;;;;;5108426;28;19935;-73
2022/04/22 06:29:47;;;;;;;;;;;9.30;99.90;;;;;;5104123;28;19928;-73
2022/04/22 06:32:13;;;;;;;;;;;9.40;99.90;;;;;;5089038;28;19924;-73
2022/04/22 06:34:38;;;;;;;;;;;9.40;99.90;;;;;;5089047;28;20468;-73
2022/04/22 06:37:04;;;;;;;;;;;9.40;99.90;;;;;;5088783;28;19924;-73
2022/04/22 06:45:46;;;;;;;;;;;9.50;99.90;;;;;;5088910;28;19925;-73
2022/04/22 06:47:43;;;;;;;;;;;9.60;99.90;;;;;;5088128;28;19924;-74
2022/04/22 06:50:09;;;;;;;;;;;9.70;99.90;;;;;;5088014;28;19977;-74
2022/04/22 06:52:35;;;;;;;;;;;9.70;99.90;;;;;;5091687;28;20372;-74
2022/04/22 06:55:00;;;;;;;;;;;9.80;99.90;;;;;;5091493;28;19969;-74
2022/04/22 06:57:26;;;;;;;;;;;9.80;99.90;;;;;;5092790;28;19924;-74
2022/04/22 06:59:52;;;;;;;;;;;9.90;99.90;;;;;;5074797;28;19927;-73
2022/04/22 07:02:18;;;;;;;;;;;10.00;99.90;;;;;;5091033;28;20039;-74
2022/04/22 07:04:43;;;;;;;;;;;10.00;99.90;;;;;;5091416;28;19928;-74
2022/04/22 07:07:09;;;;;;;;;;;10.10;99.90;;;;;;5091753;28;19959;-74
2022/04/22 07:09:35;;;;;;;;;;;10.10;99.90;;;;;;5091189;28;19928;-74
2022/04/22 07:12:01;;;;;;;;;;;10.20;99.90;;;;;;5091389;28;20015;-73
2022/04/22 07:14:27;;;;;;;;;;;10.20;99.90;;;;;;5074490;28;19931;-74
2022/04/22 07:16:52;;;;;;;;;;;10.30;99.90;;;;;;5091401;28;19924;-74
2022/04/22 07:19:18;;;;;;;;;;;10.30;99.90;;;;;;5091195;28;19928;-73
2022/04/22 07:21:43;;;;;;;;;;;10.40;99.90;;;;;;5092071;28;20379;-73
2022/04/22 07:24:09;;;;;;;;;;;10.50;99.90;;;;;;5091319;28;20446;-73
2022/04/22 07:26:37;;;;;;;;;;;10.60;99.90;;;;;;5092025;28;19924;-73
2022/04/22 07:29:04;;;;;;;;;;;10.60;99.90;;;;;;5092203;28;19931;-74
2022/04/22 07:31:31;;;;;;;;;;;10.80;99.90;;;;;;5112253;28;19947;-74
2022/04/22 07:33:56;;;;;;;;;;;10.70;99.90;;;;;;5112834;28;20002;-73
2022/04/22 07:36:22;;;;;;;;;;;10.80;99.90;;;;;;5111635;28;20010;-73
2022/04/22 07:38:47;;;;;;;;;;;10.90;99.90;;;;;;5112389;28;20030;-73
2022/04/22 07:41:17;;;;;;;;;;;10.90;99.90;;;;;;5112714;28;19924;-73
2022/04/22 07:46:48;;;;;;;;;;;11.10;99.90;;;;;;5112146;28;19927;-73
2022/04/22 07:49:13;;;;;;;;;;;11.10;99.90;;;;;;5111036;28;19924;-73
2022/04/22 07:51:42;;;;;;;;;;;11.20;99.90;;;;;;5110979;28;19924;-73
2022/04/22 07:54:08;;;;;;;;;;;11.30;99.90;;;;;;5110862;28;19924;-73
2022/04/22 07:56:34;;;;;;;;;;;11.40;99.90;;;;;;5111472;28;19931;-73
2022/04/22 07:58:59;;;;;;;;;;;11.40;99.90;;;;;;5111380;28;19969;-73
2022/04/22 08:01:25;;;;;;;;;;;11.50;99.90;;;;;;5110750;28;20007;-74
2022/04/22 08:03:53;;;;;;;;;;;11.50;99.90;;;;;;5109810;28;19931;-74
2022/04/22 08:06:19;;;;;;;;;;;11.60;99.90;;;;;;5111860;28;19928;-74
2022/04/22 08:08:44;;;;;;;;;;;11.70;99.90;;;;;;5110498;28;19947;-73
2022/04/22 08:11:10;;;;;;;;;;;11.80;99.90;;;;;;5110596;28;20024;-74
2022/04/22 08:13:35;;;;;;;;;;;11.90;99.90;;;;;;5110723;28;19984;-74
2022/04/22 08:16:01;;;;;;;;;;;11.90;99.90;;;;;;5110856;28;19924;-74
2022/04/22 08:18:27;;;;;;;;;;;12.00;99.90;;;;;;5111833;28;19945;-74
2022/04/22 08:20:52;;;;;;;;;;;12.10;99.90;;;;;;5111048;28;20015;-74
2022/04/22 08:23:21;;;;;;;;;;;12.20;99.90;;;;;;5110436;28;19923;-74
2022/04/22 08:25:46;;;;;;;;;;;12.20;99.90;;;;;;5111447;28;20459;-74
2022/04/22 08:28:12;;;;;;;;;;;12.30;99.90;;;;;;5111587;28;19985;-74
2022/04/22 08:30:37;;;;;;;;;;;12.40;99.90;;;;;;5098593;28;20271;-74
2022/04/22 08:33:03;;;;;;;;;;;12.50;99.90;;;;;;5091317;28;19924;-74
2022/04/22 08:35:28;;;;;;;;;;;12.50;99.90;;;;;;5089418;28;19924;-74
2022/04/22 08:37:54;;;;;;;;;;;12.50;99.90;;;;;;5090886;28;19925;-74
2022/04/22 08:40:20;;;;;;;;;;;12.60;99.90;;;;;;5089521;28;19924;-74
2022/04/22 08:42:47;;;;;;;;;;;12.70;99.90;;;;;;5090746;28;19924;-74
2022/04/22 08:45:12;;;;;;;;;;;12.70;99.90;;;;;;5089356;28;20416;-74
2022/04/22 08:50:22;;;;;;;;;;;12.90;99.90;;;;;;5089216;28;19924;-74
2022/04/22 08:52:53;;;;;;;;;;;13.00;99.90;;;;;;5090735;28;19928;-74
2022/04/22 08:55:18;;;;;;;;;;;13.10;99.90;;;;;;5090542;28;19931;-74
2022/04/22 08:57:44;;;;;;;;;;;13.20;99.90;;;;;;5089396;28;19924;-74
2022/04/22 09:00:10;;;;;;;;;;;13.30;99.90;;;;;;5072434;28;19924;-74
2022/04/22 09:02:36;;;;;;;;;;;13.40;99.90;;;;;;5090350;28;19994;-74
2022/04/22 09:05:02;;;;;;;;;;;13.50;99.90;;;;;;5090387;28;19928;-74
2022/04/22 09:07:27;;;;;;;;;;;13.50;99.70;;;;;;5090457;28;19936;-74
2022/04/22 09:09:53;;;;;;;;;;;13.60;99.90;;;;;;5090217;28;20019;-74
2022/04/22 09:12:23;;;;;;;;;;;13.60;99.60;;;;;;5090477;28;20423;-74
2022/04/22 09:14:49;;;;;;;;;;;13.80;99.40;;;;;;5090059;28;19975;-74
2022/04/22 09:17:16;;;;;;;;;;;13.80;98.30;;;;;;5090346;28;19969;-74
2022/04/22 09:19:43;;;;;;;;;;;13.90;98.40;;;;;;5090123;28;19924;-73
2022/04/22 09:22:09;;;;;;;;;;;14.10;98.10;;;;;;5088800;28;19928;-74
2022/04/22 09:24:54;;;;;;;;;;;14.60;98.10;;;;;;5088689;28;19924;-74
2022/04/22 09:27:30;;;;;;;;;;;15.20;97.70;;;;;;5089380;28;20402;-74
2022/04/22 09:29:56;;;;;;;;;;;16.00;96.50;;;;;;5096913;28;19930;-74
2022/04/22 09:32:26;;;;;;;;;;;16.50;95.50;;;;;;5108882;28;20297;-75
2022/04/22 09:34:52;;;;;;;;;;;16.80;94.40;;;;;;5110170;28;20382;-74
2022/04/22 09:42:48;;;;;;;;;;;17.60;90.80;;;;;;5109149;28;20002;-74
2022/04/22 09:45:14;;;;;;;;;;;17.70;88.50;;;;;;5092047;28;19931;-74
2022/04/22 09:47:40;;;;;;;;;;;17.70;89.00;;;;;;5108503;28;19930;-75
2022/04/22 09:50:11;;;;;;;;;;;17.90;87.10;;;;;;5109035;28;20018;-74
2022/04/22 09:52:46;;;;;;;;;;;18.00;87.40;;;;;;5108901;28;20003;-74
2022/04/22 09:55:16;;;;;;;;;;;18.20;86.30;;;;;;5091735;28;19927;-74
2022/04/22 09:57:54;;;;;;;;;;;18.50;84.10;;;;;;5109394;28;20274;-74
2022/04/22 10:00:20;;;;;;;;;;;18.50;84.60;;;;;;5108707;28;19973;-74
2022/04/22 10:02:52;;;;;;;;;;;18.60;83.30;;;;;;5109905;28;19935;-74
2022/04/22 10:05:18;;;;;;;;;;;18.60;81.90;;;;;;5108602;28;19927;-74
2022/04/22 10:07:44;;;;;;;;;;;18.80;81.50;;;;;;5110194;28;19923;-74
2022/04/22 10:10:10;;;;;;;;;;;19.00;80.60;;;;;;5109671;28;20026;-73
2022/04/22 10:12:36;;;;;;;;;;;19.10;78.80;;;;;;5109591;28;19924;-73
2022/04/22 10:15:03;;;;;;;;;;;19.30;78.50;;;;;;5108741;28;19949;-73
2022/04/22 10:17:29;;;;;;;;;;;19.50;75.70;;;;;;5109484;28;20456;-73
2022/04/22 10:19:55;;;;;;;;;;;19.60;76.90;;;;;;5109688;28;19924;-73
2022/04/22 10:22:21;;;;;;;;;;;19.70;73.00;;;;;;5109502;28;19928;-74
2022/04/22 10:24:49;;;;;;;;;;;19.70;72.20;;;;;;5109639;28;20477;-74
2022/04/22 10:27:15;;;;;;;;;;;19.80;72.00;;;;;;5113403;28;20012;-73
2022/04/22 10:29:41;;;;;;;;;;;19.80;72.10;;;;;;5107775;28;20367;-73
2022/04/22 10:32:07;;;;;;;;;;;19.90;71.20;;;;;;5093391;28;19931;-73
2022/04/22 10:34:37;;;;;;;;;;;20.10;69.30;;;;;;5092051;28;20336;-73
2022/04/22 10:37:02;;;;;;;;;;;20.10;69.30;;;;;;5091884;28;20394;-73
2022/04/22 10:39:32;;;;;;;;;;;20.10;67.60;;;;;;5091980;28;19931;-73
2022/04/22 10:41:58;;;;;;;;;;;20.10;68.30;;;;;;5092175;28;19940;-72
2022/04/22 10:47:36;;;;;;;;;;;20.10;66.90;;;;;;5068348;28;19924;-74
2022/04/22 10:50:21;;;;;;;;;;;20.10;66.80;;;;;;5091447;28;19924;-74
2022/04/22 10:53:07;;;;;;;;;;;20.30;67.20;;;;;;5093004;28;19938;-74
2022/04/22 10:55:33;;;;;;;;;;;20.20;66.70;;;;;;5092888;28;20690;-74
2022/04/22 10:58:19;;;;;;;;;;;20.40;67.80;;;;;;5075074;28;19959;-74
2022/04/22 11:00:46;;;;;;;;;;;20.50;66.40;;;;;;5092722;28;19924;-74
2022/04/22 11:03:13;;;;;;;;;;;20.70;66.90;;;;;;5091912;28;19931;-74
2022/04/22 11:05:48;;;;;;;;;;;20.90;66.10;;;;;;5092481;28;20275;-74
2022/04/22 11:08:18;;;;;;;;;;;20.90;64.60;;;;;;5092716;28;20454;-74
2022/04/22 11:10:44;;;;;;;;;;;21.00;64.20;;;;;;5092165;28;20469;-74
2022/04/22 11:13:24;;;;;;;;;;;21.10;65.40;;;;;;5091484;28;19924;-74
2022/04/22 11:15:51;;;;;;;;;;;21.30;63.20;;;;;;5091273;28;20003;-74
2022/04/22 11:18:17;;;;;;;;;;;21.20;63.10;;;;;;5092757;28;20353;-74
2022/04/22 11:20:43;;;;;;;;;;;21.20;63.70;;;;;;5092524;28;20014;-74
2022/04/22 11:23:15;;;;;;;;;;;21.30;62.50;;;;;;5091635;28;20355;-74
2022/04/22 11:25:41;;;;;;;;;;;21.40;62.50;;;;;;5092619;28;19924;-74
2022/04/22 11:28:10;;;;;;;;;;;21.50;63.00;;;;;;5092525;28;19931;-74
2022/04/22 11:30:36;;;;;;;;;;;21.50;63.00;;;;;;5104464;28;19935;-74
2022/04/22 11:33:23;;;;;;;;;;;21.60;62.20;;;;;;5112232;28;19924;-74
2022/04/22 11:35:50;;;;;;;;;;;21.70;62.30;;;;;;5112531;27;19939;-74
2022/04/22 11:38:16;;;;;;;;;;;21.90;61.60;;;;;;5109533;28;19974;-74
2022/04/22 11:40:44;;;;;;;;;;;21.90;59.80;;;;;;5112362;28;19970;-74
2022/04/22 11:43:10;;;;;;;;;;;21.90;58.60;;;;;;5094109;28;20011;-74
2022/04/22 11:45:37;;;;;;;;;;;21.90;59.50;;;;;;5110663;28;20006;-74
2022/04/22 11:48:06;;;;;;;;;;;21.80;59.50;;;;;;5112370;28;20007;-74
2022/04/22 11:50:37;;;;;;;;;;;21.80;59.00;;;;;;5110886;28;19935;-74
2022/04/22 11:53:06;;;;;;;;;;;21.90;60.20;;;;;;5111151;28;20429;-74
2022/04/22 11:55:32;;;;;;;;;;;22.10;59.80;;;;;;5110918;28;19931;-74
2022/04/22 11:57:59;;;;;;;;;;;22.20;60.50;;;;;;5112226;28;19961;-74
2022/04/22 12:05:54;;;;;;;;;;;22.40;58.50;;;;;;5111800;27;19923;-74
2022/04/22 12:08:20;;;;;;;;;;;22.40;58.30;;;;;;5111692;28;19931;-75
2022/04/22 12:10:46;;;;;;;;;;;22.40;57.60;;;;;;5110377;28;20386;-74
2022/04/22 12:13:14;;;;;;;;;;;22.50;56.70;;;;;;5111733;28;20018;-74
2022/04/22 12:15:43;;;;;;;;;;;22.50;57.80;;;;;;5111721;27;20010;-74
2022/04/22 12:18:23;;;;;;;;;;;22.60;58.70;;;;;;5111774;28;20010;-74
2022/04/22 12:20:49;;;;;;;;;;;22.60;58.60;;;;;;5111271;28;20332;-74
2022/04/22 12:23:15;;;;;;;;;;;22.70;58.10;;;;;;5110045;28;20018;-74
2022/04/22 12:25:51;;;;;;;;;;;22.80;58.70;;;;;;5110242;28;19924;-74
2022/04/22 12:28:18;;;;;;;;;;;23.00;58.10;;;;;;5110150;28;19924;-75
2022/04/22 12:30:44;;;;;;;;;;;23.20;58.30;;;;;;5096648;28;19931;-74
2022/04/22 12:33:16;;;;;;;;;;;23.50;57.40;;;;;;5089447;28;19924;-74
2022/04/22 12:35:42;;;;;;;;;;;23.60;55.20;;;;;;5089462;28;20027;-75
2022/04/22 12:38:11;;;;;;;;;;;23.60;56.70;;;;;;5089961;28;19924;-74
2022/04/22 12:40:47;;;;;;;;;;;23.70;55.30;;;;;;5089698;28;20363;-74
2022/04/22 12:43:27;;;;;;;;;;;23.70;56.10;;;;;;5089348;28;19928;-74
2022/04/22 12:54:09;;;;;;;;;;;24.20;54.20;;;;;;5089962;28;19924;-75
2022/04/22 12:56:34;;;;;;;;;;;24.20;54.20;;;;;;5089364;28;19930;-74
2022/04/22 12:59:01;;;;;;;;;;;24.00;53.90;;;;;;5089331;28;19925;-74
2022/04/22 13:01:27;;;;;;;;;;;23.90;53.50;;;;;;5090728;28;19924;-74
2022/04/22 13:03:53;;;;;;;;;;;23.90;53.90;;;;;;5089454;28;20408;-74
2022/04/22 13:06:37;;;;;;;;;;;24.00;52.20;;;;;;5089060;28;20015;-74
2022/04/22 13:09:03;;;;;;;;;;;24.00;52.00;;;;;;5089079;28;19971;-74
2022/04/22 13:11:29;;;;;;;;;;;24.20;53.10;;;;;;5071243;28;20379;-74
2022/04/22 13:13:55;;;;;;;;;;;24.20;51.50;;;;;;5090402;28;19924;-74
2022/04/22 13:16:20;;;;;;;;;;;24.40;51.90;;;;;;5090252;28;19935;-74
2022/04/22 13:18:46;;;;;;;;;;;24.50;50.80;;;;;;5090546;28;19928;-74
2022/04/22 13:21:11;;;;;;;;;;;24.40;49.60;;;;;;5089460;28;20305;-74
2022/04/22 13:23:37;;;;;;;;;;;24.30;50.60;;;;;;5090355;28;19981;-74
2022/04/22 13:26:03;;;;;;;;;;;24.20;51.30;;;;;;5090340;28;19924;-74
2022/04/22 13:28:29;;;;;;;;;;;24.60;52.50;;;;;;5070884;28;20189;-74
2022/04/22 13:30:54;;;;;;;;;;;25.10;51.90;;;;;;5103387;28;20401;-74
2022/04/22 13:33:20;;;;;;;;;;;25.10;49.30;;;;;;5110619;28;19923;-74
2022/04/22 13:35:45;;;;;;;;;;;25.00;49.50;;;;;;5110068;28;19967;-74
2022/04/22 13:38:11;;;;;;;;;;;25.10;48.90;;;;;;5109525;28;19923;-74
2022/04/22 13:40:36;;;;;;;;;;;25.40;49.00;;;;;;5109842;28;20018;-74
2022/04/22 13:43:02;;;;;;;;;;;25.60;49.80;;;;;;5108904;28;19969;-74
2022/04/22 13:53:45;;;;;;;;;;;26.20;49.60;;;;;;5109310;28;20287;-74
2022/04/22 13:56:11;;;;;;;;;;;25.50;47.50;;;;;;5109108;28;19931;-74
2022/04/22 13:58:38;;;;;;;;;;;25.00;49.60;;;;;;5108503;28;20378;-74
2022/04/22 14:01:04;;;;;;;;;;;24.60;49.70;;;;;;5108075;28;19931;-74
2022/04/22 14:03:30;;;;;;;;;;;23.90;48.90;;;;;;5108597;28;19923;-74
2022/04/22 14:05:56;;;;;;;;;;;23.30;50.30;;;;;;5109824;28;19976;-74
2022/04/22 14:08:21;;;;;;;;;;;23.70;51.40;;;;;;5108908;28;19928;-74
2022/04/22 14:10:47;;;;;;;;;;;24.30;50.30;;;;;;5109718;28;20404;-74
2022/04/22 14:13:14;;;;;;;;;;;24.80;50.60;;;;;;5108593;28;19924;-73
2022/04/22 14:15:43;;;;;;;;;;;25.00;50.00;;;;;;5108493;28;19928;-73
2022/04/22 14:18:08;;;;;;;;;;;24.70;49.40;;;;;;5107736;28;20274;-74
2022/04/22 14:20:35;;;;;;;;;;;24.50;50.30;;;;;;5108318;28;19935;-73
2022/04/22 14:23:00;;;;;;;;;;;24.00;50.20;;;;;;5109020;28;20450;-73
2022/04/22 14:25:26;;;;;;;;;;;23.50;50.10;;;;;;5109050;28;20026;-74
2022/04/22 14:27:52;;;;;;;;;;;23.60;51.20;;;;;;5107225;28;19923;-74
2022/04/22 14:30:17;;;;;;;;;;;24.20;51.00;;;;;;5099139;28;19928;-73
2022/04/22 14:32:43;;;;;;;;;;;24.80;50.70;;;;;;5087315;28;19928;-74
2022/04/22 14:35:09;;;;;;;;;;;25.40;50.00;;;;;;5088237;28;20002;-74
2022/04/22 14:37:34;;;;;;;;;;;25.50;48.20;;;;;;5087970;28;20364;-74
2022/04/22 14:40:00;;;;;;;;;;;24.70;48.10;;;;;;5088685;28;20007;-74
2022/04/22 14:42:26;;;;;;;;;;;23.70;48.70;;;;;;5087036;28;19963;-74
2022/04/22 14:44:51;;;;;;;;;;;22.90;50.20;;;;;;5087800;28;19924;-74
2022/04/22 14:47:18;;;;;;;;;;;22.40;52.10;;;;;;5086606;28;20449;-73
2022/04/22 14:49:45;;;;;;;;;;;22.40;52.90;;;;;;5088184;28;20357;-73
2022/04/22 14:52:11;;;;;;;;;;;22.70;52.40;;;;;;5088469;28;19947;-73
2022/04/22 14:54:37;;;;;;;;;;;23.30;52.60;;;;;;5087914;28;19928;-73
2022/04/22 14:57:04;;;;;;;;;;;23.40;51.40;;;;;;5088800;28;20053;-73
2022/04/22 14:59:29;;;;;;;;;;;23.40;50.20;;;;;;5087912;28;20286;-72
2022/04/22 15:01:55;;;;;;;;;;;23.10;50.30;;;;;;5088996;28;19936;-72
2022/04/22 15:04:20;;;;;;;;;;;22.60;50.90;;;;;;5087560;28;19939;-72
2022/04/22 15:06:47;;;;;;;;;;;22.10;50.30;;;;;;5086870;28;20809;-72
2022/04/22 15:09:15;;;;;;;;;;;22.60;51.60;;;;;;5087771;28;19931;-73
2022/04/22 15:11:41;;;;;;;;;;;23.60;50.70;;;;;;5088734;28;20341;-73
2022/04/22 15:14:07;;;;;;;;;;;24.30;49.80;;;;;;5091864;28;20007;-72
2022/04/22 15:16:32;;;;;;;;;;;24.90;49.60;;;;;;5091842;28;19928;-72
2022/04/22 15:24:26;;;;;;;;;;;26.00;48.60;;;;;;5091951;28;19924;-73
2022/04/22 15:26:54;;;;;;;;;;;26.30;48.70;;;;;;5092201;28;19955;-72
2022/04/22 15:29:20;;;;;;;4.47;3.45;;;26.00;47.40;;;;;;5093429;28;19994;-72
2022/04/22 15:31:46;;;;;;;8.68;4.10;;;25.40;49.30;;;;;;5111907;28;20498;-72
2022/04/22 15:34:11;;;;;;;10.30;4.05;;;25.40;48.60;;;;;;5112394;28;20085;-72
2022/04/22 15:36:37;;;;;;;8.20;3.88;;;25.40;49.00;;;;;;5110435;28;20122;-73
2022/04/22 15:39:04;;;;;;;;;;;25.10;48.60;;;;;;5112632;28;20040;-72
2022/04/22 15:41:30;;;;;;;;;;;24.70;48.90;;;;;;5112435;28;19923;-74
2022/04/22 15:43:56;;;;;;;;;;;24.50;49.80;;;;;;5112428;28;19927;-73